sensor_id;sensor_type;location;lat;lon;timestamp;temperature;humidity
22714;DHT22;11524;50.846;4.326;2022-09-23T00:00:00;21.90;54.30
22714;DHT22;11524;50.846;4.326;2022-09-23T00:02:26;21.90;54.20
22714;DHT22;11524;50.846;4.326;2022-09-23T00:04:51;21.90;54.10
22714;DHT22;11524;50.846;4.326;2022-09-23T00:07:17;21.90;54.20
22714;DHT22;11524;50.846;4.326;2022-09-23T00:09:42;21.90;54.40
22714;DHT22;11524;50.846;4.326;2022-09-23T00:12:08;21.80;54.40
22714;DHT22;11524;50.846;4.326;2022-09-23T00:14:36;21.80;54.40
22714;DHT22;11524;50.846;4.326;2022-09-23T00:17:03;21.80;54.30
22714;DHT22;11524;50.846;4.326;2022-09-23T00:19:28;21.80;54.40
22714;DHT22;11524;50.846;4.326;2022-09-23T00:21:54;21.80;54.30
22714;DHT22;11524;50.846;4.326;2022-09-23T00:24:21;21.80;54.30
22714;DHT22;11524;50.846;4.326;2022-09-23T00:26:47;21.80;54.30
22714;DHT22;11524;50.846;4.326;2022-09-23T00:29:13;21.80;54.20
22714;DHT22;11524;50.846;4.326;2022-09-23T00:31:40;21.80;54.40
22714;DHT22;11524;50.846;4.326;2022-09-23T00:34:06;21.70;54.40
22714;DHT22;11524;50.846;4.326;2022-09-23T00:36:31;21.80;54.40
22714;DHT22;11524;50.846;4.326;2022-09-23T00:38:57;21.80;54.10
22714;DHT22;11524;50.846;4.326;2022-09-23T00:41:23;21.80;53.90
22714;DHT22;11524;50.846;4.326;2022-09-23T00:43:57;21.90;54.10
22714;DHT22;11524;50.846;4.326;2022-09-23T00:46:28;21.80;54.30
22714;DHT22;11524;50.846;4.326;2022-09-23T00:48:59;21.80;54.50
22714;DHT22;11524;50.846;4.326;2022-09-23T00:51:31;21.80;54.30
22714;DHT22;11524;50.846;4.326;2022-09-23T00:53:58;21.80;54.50
22714;DHT22;11524;50.846;4.326;2022-09-23T00:56:23;21.80;54.40
22714;DHT22;11524;50.846;4.326;2022-09-23T00:58:50;21.80;54.60
22714;DHT22;11524;50.846;4.326;2022-09-23T01:01:16;21.80;54.30
22714;DHT22;11524;50.846;4.326;2022-09-23T01:03:44;21.70;54.20
22714;DHT22;11524;50.846;4.326;2022-09-23T01:06:11;21.70;55.00
22714;DHT22;11524;50.846;4.326;2022-09-23T01:08:38;21.70;54.40
22714;DHT22;11524;50.846;4.326;2022-09-23T01:16:55;21.70;54.60
22714;DHT22;11524;50.846;4.326;2022-09-23T01:22:43;21.70;54.80
22714;DHT22;11524;50.846;4.326;2022-09-23T01:28:34;21.60;55.00
22714;DHT22;11524;50.846;4.326;2022-09-23T01:31:07;21.60;54.60
22714;DHT22;11524;50.846;4.326;2022-09-23T01:36:48;21.60;54.70
22714;DHT22;11524;50.846;4.326;2022-09-23T01:39:31;21.60;54.80
22714;DHT22;11524;50.846;4.326;2022-09-23T01:47:21;21.60;54.90
22714;DHT22;11524;50.846;4.326;2022-09-23T01:49:59;21.60;54.90
22714;DHT22;11524;50.846;4.326;2022-09-23T01:52:39;21.60;54.90
22714;DHT22;11524;50.846;4.326;2022-09-23T01:55:39;21.50;55.00
22714;DHT22;11524;50.846;4.326;2022-09-23T01:58:11;21.50;54.80
22714;DHT22;11524;50.846;4.326;2022-09-23T02:00:41;21.50;54.80
22714;DHT22;11524;50.846;4.326;2022-09-23T02:03:14;21.50;54.90
22714;DHT22;11524;50.846;4.326;2022-09-23T02:05:51;21.50;55.10
22714;DHT22;11524;50.846;4.326;2022-09-23T02:08:31;21.50;55.00
22714;DHT22;11524;50.846;4.326;2022-09-23T02:11:04;21.50;55.30
22714;DHT22;11524;50.846;4.326;2022-09-23T02:14:21;21.50;55.90
22714;DHT22;11524;50.846;4.326;2022-09-23T02:16:48;21.50;55.20
22714;DHT22;11524;50.846;4.326;2022-09-23T02:19:33;21.50;55.00
22714;DHT22;11524;50.846;4.326;2022-09-23T02:22:10;21.50;55.40
22714;DHT22;11524;50.846;4.326;2022-09-23T02:24:37;21.50;55.20
22714;DHT22;11524;50.846;4.326;2022-09-23T02:32:58;21.50;54.80
22714;DHT22;11524;50.846;4.326;2022-09-23T02:35:48;21.50;54.80
22714;DHT22;11524;50.846;4.326;2022-09-23T02:40:57;21.50;55.00
22714;DHT22;11524;50.846;4.326;2022-09-23T02:46:24;21.50;55.50
22714;DHT22;11524;50.846;4.326;2022-09-23T02:48:57;21.50;55.50
22714;DHT22;11524;50.846;4.326;2022-09-23T02:51:26;21.50;55.30
22714;DHT22;11524;50.846;4.326;2022-09-23T02:53:54;21.50;55.50
22714;DHT22;11524;50.846;4.326;2022-09-23T02:56:20;21.50;56.30
22714;DHT22;11524;50.846;4.326;2022-09-23T02:58:51;21.50;55.80
22714;DHT22;11524;50.846;4.326;2022-09-23T03:18:51;21.40;53.60
22714;DHT22;11524;50.846;4.326;2022-09-23T03:21:28;21.30;53.70
22714;DHT22;11524;50.846;4.326;2022-09-23T03:23:59;21.30;53.30
22714;DHT22;11524;50.846;4.326;2022-09-23T03:26:35;21.30;53.50
22714;DHT22;11524;50.846;4.326;2022-09-23T03:29:06;21.30;53.60
22714;DHT22;11524;50.846;4.326;2022-09-23T03:31:35;21.40;54.10
22714;DHT22;11524;50.846;4.326;2022-09-23T03:34:05;21.20;53.90
22714;DHT22;11524;50.846;4.326;2022-09-23T03:36:42;21.20;53.90
22714;DHT22;11524;50.846;4.326;2022-09-23T03:39:35;21.20;53.60
22714;DHT22;11524;50.846;4.326;2022-09-23T03:42:27;21.20;53.50
22714;DHT22;11524;50.846;4.326;2022-09-23T03:44:57;21.20;53.70
22714;DHT22;11524;50.846;4.326;2022-09-23T03:47:27;21.10;53.60
22714;DHT22;11524;50.846;4.326;2022-09-23T03:49:53;21.10;53.70
22714;DHT22;11524;50.846;4.326;2022-09-23T03:52:22;21.10;53.90
22714;DHT22;11524;50.846;4.326;2022-09-23T03:54:48;21.10;54.00
22714;DHT22;11524;50.846;4.326;2022-09-23T03:57:15;21.10;53.90
22714;DHT22;11524;50.846;4.326;2022-09-23T03:59:41;21.10;54.30
22714;DHT22;11524;50.846;4.326;2022-09-23T04:02:08;21.10;54.40
22714;DHT22;11524;50.846;4.326;2022-09-23T04:04:37;21.10;54.00
22714;DHT22;11524;50.846;4.326;2022-09-23T04:07:05;21.10;54.10
22714;DHT22;11524;50.846;4.326;2022-09-23T04:09:30;21.10;54.30
22714;DHT22;11524;50.846;4.326;2022-09-23T04:11:56;21.10;54.10
22714;DHT22;11524;50.846;4.326;2022-09-23T04:14:22;21.10;54.10
22714;DHT22;11524;50.846;4.326;2022-09-23T04:16:48;21.10;54.00
22714;DHT22;11524;50.846;4.326;2022-09-23T04:19:15;21.10;54.50
22714;DHT22;11524;50.846;4.326;2022-09-23T04:21:41;21.00;54.20
22714;DHT22;11524;50.846;4.326;2022-09-23T04:24:08;21.00;55.20
22714;DHT22;11524;50.846;4.326;2022-09-23T04:26:34;21.10;59.90
22714;DHT22;11524;50.846;4.326;2022-09-23T04:29:00;21.10;60.10
22714;DHT22;11524;50.846;4.326;2022-09-23T04:31:26;21.20;60.20
22714;DHT22;11524;50.846;4.326;2022-09-23T04:33:53;21.30;59.90
22714;DHT22;11524;50.846;4.326;2022-09-23T04:36:19;21.40;59.60
22714;DHT22;11524;50.846;4.326;2022-09-23T04:38:45;21.40;59.10
22714;DHT22;11524;50.846;4.326;2022-09-23T04:41:14;21.40;58.80
22714;DHT22;11524;50.846;4.326;2022-09-23T04:43:41;21.40;58.50
22714;DHT22;11524;50.846;4.326;2022-09-23T04:46:09;21.50;57.80
22714;DHT22;11524;50.846;4.326;2022-09-23T04:48:37;21.50;57.40
22714;DHT22;11524;50.846;4.326;2022-09-23T04:51:09;21.50;57.00
22714;DHT22;11524;50.846;4.326;2022-09-23T04:53:36;21.50;56.80
22714;DHT22;11524;50.846;4.326;2022-09-23T04:56:04;21.50;56.60
22714;DHT22;11524;50.846;4.326;2022-09-23T04:58:30;21.50;56.40
22714;DHT22;11524;50.846;4.326;2022-09-23T05:00:56;21.50;56.30
22714;DHT22;11524;50.846;4.326;2022-09-23T05:03:23;21.50;56.00
22714;DHT22;11524;50.846;4.326;2022-09-23T05:05:48;21.50;55.90
22714;DHT22;11524;50.846;4.326;2022-09-23T05:08:14;21.40;52.70
22714;DHT22;11524;50.846;4.326;2022-09-23T05:10:40;21.40;50.40
22714;DHT22;11524;50.846;4.326;2022-09-23T05:13:07;21.30;50.50
22714;DHT22;11524;50.846;4.326;2022-09-23T05:15:33;21.20;50.30
22714;DHT22;11524;50.846;4.326;2022-09-23T05:17:59;21.20;50.30
22714;DHT22;11524;50.846;4.326;2022-09-23T05:20:25;21.10;50.40
22714;DHT22;11524;50.846;4.326;2022-09-23T05:22:50;21.10;50.80
22714;DHT22;11524;50.846;4.326;2022-09-23T05:25:20;21.10;51.10
22714;DHT22;11524;50.846;4.326;2022-09-23T05:27:48;21.00;50.70
22714;DHT22;11524;50.846;4.326;2022-09-23T05:30:14;21.00;50.70
22714;DHT22;11524;50.846;4.326;2022-09-23T05:32:39;21.00;50.50
22714;DHT22;11524;50.846;4.326;2022-09-23T05:35:05;21.00;50.60
22714;DHT22;11524;50.846;4.326;2022-09-23T05:37:33;20.90;50.50
22714;DHT22;11524;50.846;4.326;2022-09-23T05:39:59;20.90;50.50
22714;DHT22;11524;50.846;4.326;2022-09-23T05:42:24;20.90;50.40
22714;DHT22;11524;50.846;4.326;2022-09-23T05:44:50;20.70;50.40
22714;DHT22;11524;50.846;4.326;2022-09-23T05:47:16;19.90;51.90
22714;DHT22;11524;50.846;4.326;2022-09-23T05:49:42;19.40;52.90
22714;DHT22;11524;50.846;4.326;2022-09-23T05:52:07;18.90;53.50
22714;DHT22;11524;50.846;4.326;2022-09-23T05:54:33;18.60;54.50
22714;DHT22;11524;50.846;4.326;2022-09-23T05:56:58;18.50;55.50
22714;DHT22;11524;50.846;4.326;2022-09-23T05:59:24;18.80;55.50
22714;DHT22;11524;50.846;4.326;2022-09-23T06:01:50;19.20;54.70
22714;DHT22;11524;50.846;4.326;2022-09-23T06:04:15;19.40;54.60
22714;DHT22;11524;50.846;4.326;2022-09-23T06:06:41;19.60;53.40
22714;DHT22;11524;50.846;4.326;2022-09-23T06:09:10;19.90;53.00
22714;DHT22;11524;50.846;4.326;2022-09-23T06:11:38;20.00;52.80
22714;DHT22;11524;50.846;4.326;2022-09-23T06:14:04;20.10;52.40
22714;DHT22;11524;50.846;4.326;2022-09-23T06:16:32;20.20;52.20
22714;DHT22;11524;50.846;4.326;2022-09-23T06:18:58;20.40;51.90
22714;DHT22;11524;50.846;4.326;2022-09-23T06:21:30;20.40;51.90
22714;DHT22;11524;50.846;4.326;2022-09-23T06:23:57;20.50;51.80
22714;DHT22;11524;50.846;4.326;2022-09-23T06:26:27;20.50;51.30
22714;DHT22;11524;50.846;4.326;2022-09-23T06:28:58;20.60;51.20
22714;DHT22;11524;50.846;4.326;2022-09-23T06:31:25;20.70;51.00
22714;DHT22;11524;50.846;4.326;2022-09-23T06:33:51;20.70;50.70
22714;DHT22;11524;50.846;4.326;2022-09-23T06:36:16;20.80;50.60
22714;DHT22;11524;50.846;4.326;2022-09-23T06:38:42;20.80;50.60
22714;DHT22;11524;50.846;4.326;2022-09-23T06:41:10;20.80;51.20
22714;DHT22;11524;50.846;4.326;2022-09-23T06:43:36;20.90;51.60
22714;DHT22;11524;50.846;4.326;2022-09-23T06:46:03;21.00;51.70
22714;DHT22;11524;50.846;4.326;2022-09-23T06:48:30;21.00;51.50
22714;DHT22;11524;50.846;4.326;2022-09-23T06:51:01;21.00;51.30
22714;DHT22;11524;50.846;4.326;2022-09-23T06:53:29;21.10;51.80
22714;DHT22;11524;50.846;4.326;2022-09-23T06:56:07;21.10;51.50
22714;DHT22;11524;50.846;4.326;2022-09-23T06:58:34;21.10;51.10
22714;DHT22;11524;50.846;4.326;2022-09-23T07:01:05;21.10;50.80
22714;DHT22;11524;50.846;4.326;2022-09-23T07:03:32;21.20;50.80
22714;DHT22;11524;50.846;4.326;2022-09-23T07:05:58;21.20;50.50
22714;DHT22;11524;50.846;4.326;2022-09-23T07:08:24;21.20;50.30
22714;DHT22;11524;50.846;4.326;2022-09-23T07:10:52;21.30;50.00
22714;DHT22;11524;50.846;4.326;2022-09-23T07:13:18;21.30;50.10
22714;DHT22;11524;50.846;4.326;2022-09-23T07:15:50;21.40;49.70
22714;DHT22;11524;50.846;4.326;2022-09-23T07:18:17;21.50;49.20
22714;DHT22;11524;50.846;4.326;2022-09-23T07:20:43;21.40;49.20
22714;DHT22;11524;50.846;4.326;2022-09-23T07:23:09;21.50;49.00
22714;DHT22;11524;50.846;4.326;2022-09-23T07:25:34;21.50;48.70
22714;DHT22;11524;50.846;4.326;2022-09-23T07:28:00;21.60;48.60
22714;DHT22;11524;50.846;4.326;2022-09-23T07:30:26;21.60;48.60
22714;DHT22;11524;50.846;4.326;2022-09-23T07:32:52;21.60;48.70
22714;DHT22;11524;50.846;4.326;2022-09-23T07:35:18;21.60;48.70
22714;DHT22;11524;50.846;4.326;2022-09-23T07:37:44;21.60;48.80
22714;DHT22;11524;50.846;4.326;2022-09-23T07:40:10;21.60;48.50
22714;DHT22;11524;50.846;4.326;2022-09-23T07:42:36;21.70;48.30
22714;DHT22;11524;50.846;4.326;2022-09-23T07:45:03;21.70;48.30
22714;DHT22;11524;50.846;4.326;2022-09-23T07:47:31;21.70;48.00
22714;DHT22;11524;50.846;4.326;2022-09-23T07:49:56;21.70;47.80
22714;DHT22;11524;50.846;4.326;2022-09-23T07:52:22;21.80;47.70
22714;DHT22;11524;50.846;4.326;2022-09-23T07:54:48;21.80;47.40
22714;DHT22;11524;50.846;4.326;2022-09-23T07:57:13;21.80;47.40
22714;DHT22;11524;50.846;4.326;2022-09-23T07:59:39;21.80;47.10
22714;DHT22;11524;50.846;4.326;2022-09-23T08:02:05;21.90;47.10
22714;DHT22;11524;50.846;4.326;2022-09-23T08:04:31;21.90;46.90
22714;DHT22;11524;50.846;4.326;2022-09-23T08:07:02;21.90;46.80
22714;DHT22;11524;50.846;4.326;2022-09-23T08:09:37;21.90;46.90
22714;DHT22;11524;50.846;4.326;2022-09-23T08:12:11;22.00;46.90
22714;DHT22;11524;50.846;4.326;2022-09-23T08:14:37;22.00;46.70
22714;DHT22;11524;50.846;4.326;2022-09-23T08:17:04;22.10;46.70
22714;DHT22;11524;50.846;4.326;2022-09-23T08:19:30;22.10;46.40
22714;DHT22;11524;50.846;4.326;2022-09-23T08:21:55;22.10;46.40
22714;DHT22;11524;50.846;4.326;2022-09-23T08:24:22;22.10;47.20
22714;DHT22;11524;50.846;4.326;2022-09-23T08:26:49;22.30;46.80
22714;DHT22;11524;50.846;4.326;2022-09-23T08:29:18;22.40;46.60
22714;DHT22;11524;50.846;4.326;2022-09-23T08:31:44;22.40;46.40
22714;DHT22;11524;50.846;4.326;2022-09-23T08:34:10;22.50;46.50
22714;DHT22;11524;50.846;4.326;2022-09-23T08:36:36;22.50;46.60
22714;DHT22;11524;50.846;4.326;2022-09-23T08:39:03;22.60;46.20
22714;DHT22;11524;50.846;4.326;2022-09-23T08:44:51;22.70;46.40
22714;DHT22;11524;50.846;4.326;2022-09-23T08:47:42;22.70;46.10
22714;DHT22;11524;50.846;4.326;2022-09-23T08:50:18;22.70;45.90
22714;DHT22;11524;50.846;4.326;2022-09-23T08:52:58;22.80;45.90
22714;DHT22;11524;50.846;4.326;2022-09-23T08:55:36;22.80;45.70
22714;DHT22;11524;50.846;4.326;2022-09-23T09:00:44;22.90;45.60
22714;DHT22;11524;50.846;4.326;2022-09-23T09:03:20;22.90;45.80
22714;DHT22;11524;50.846;4.326;2022-09-23T09:05:48;22.90;45.40
22714;DHT22;11524;50.846;4.326;2022-09-23T09:08:19;22.90;45.60
22714;DHT22;11524;50.846;4.326;2022-09-23T09:10:52;22.90;45.60
22714;DHT22;11524;50.846;4.326;2022-09-23T09:13:31;22.90;46.40
22714;DHT22;11524;50.846;4.326;2022-09-23T09:18:45;23.00;45.80
22714;DHT22;11524;50.846;4.326;2022-09-23T09:21:13;23.00;47.30
22714;DHT22;11524;50.846;4.326;2022-09-23T09:23:53;23.10;49.50
22714;DHT22;11524;50.846;4.326;2022-09-23T09:26:26;23.10;48.20
22714;DHT22;11524;50.846;4.326;2022-09-23T09:28:56;23.10;46.20
22714;DHT22;11524;50.846;4.326;2022-09-23T09:34:48;23.10;46.00
22714;DHT22;11524;50.846;4.326;2022-09-23T09:37:12;23.10;46.70
22714;DHT22;11524;50.846;4.326;2022-09-23T09:39:40;23.10;47.90
22714;DHT22;11524;50.846;4.326;2022-09-23T09:42:05;23.20;50.70
22714;DHT22;11524;50.846;4.326;2022-09-23T09:44:49;23.30;51.80
22714;DHT22;11524;50.846;4.326;2022-09-23T09:50:18;23.20;47.70
22714;DHT22;11524;50.846;4.326;2022-09-23T09:55:44;23.30;51.70
22714;DHT22;11524;50.846;4.326;2022-09-23T09:58:16;23.30;52.40
22714;DHT22;11524;50.846;4.326;2022-09-23T10:00:43;23.40;52.70
22714;DHT22;11524;50.846;4.326;2022-09-23T10:11:14;23.40;52.20
22714;DHT22;11524;50.846;4.326;2022-09-23T10:13:41;23.50;52.40
22714;DHT22;11524;50.846;4.326;2022-09-23T10:16:07;23.50;52.50
22714;DHT22;11524;50.846;4.326;2022-09-23T10:18:47;23.50;52.40
22714;DHT22;11524;50.846;4.326;2022-09-23T10:21:16;23.50;50.10
22714;DHT22;11524;50.846;4.326;2022-09-23T10:23:54;23.50;48.20
22714;DHT22;11524;50.846;4.326;2022-09-23T10:26:29;23.40;47.70
22714;DHT22;11524;50.846;4.326;2022-09-23T10:28:58;23.40;47.60
22714;DHT22;11524;50.846;4.326;2022-09-23T10:31:31;23.40;47.60
22714;DHT22;11524;50.846;4.326;2022-09-23T10:34:02;23.40;47.30
22714;DHT22;11524;50.846;4.326;2022-09-23T10:36:30;23.40;47.20
22714;DHT22;11524;50.846;4.326;2022-09-23T10:39:01;23.50;47.40
22714;DHT22;11524;50.846;4.326;2022-09-23T10:42:01;23.50;47.50
22714;DHT22;11524;50.846;4.326;2022-09-23T10:44:56;23.50;47.30
22714;DHT22;11524;50.846;4.326;2022-09-23T10:48:31;23.50;47.20
22714;DHT22;11524;50.846;4.326;2022-09-23T10:51:04;23.50;46.90
22714;DHT22;11524;50.846;4.326;2022-09-23T10:53:57;23.50;47.40
22714;DHT22;11524;50.846;4.326;2022-09-23T10:56:33;23.50;47.40
22714;DHT22;11524;50.846;4.326;2022-09-23T11:02:04;23.50;47.70
22714;DHT22;11524;50.846;4.326;2022-09-23T11:05:12;23.50;46.30
22714;DHT22;11524;50.846;4.326;2022-09-23T11:10:41;23.50;47.40
22714;DHT22;11524;50.846;4.326;2022-09-23T11:26:47;23.50;48.20
22714;DHT22;11524;50.846;4.326;2022-09-23T11:32:19;23.60;48.00
22714;DHT22;11524;50.846;4.326;2022-09-23T11:37:40;23.60;48.00
22714;DHT22;11524;50.846;4.326;2022-09-23T11:43:19;23.60;48.00
22714;DHT22;11524;50.846;4.326;2022-09-23T11:51:28;23.60;48.90
22714;DHT22;11524;50.846;4.326;2022-09-23T11:54:18;23.70;48.50
22714;DHT22;11524;50.846;4.326;2022-09-23T11:56:57;23.70;48.50
22714;DHT22;11524;50.846;4.326;2022-09-23T12:02:02;23.70;48.50
22714;DHT22;11524;50.846;4.326;2022-09-23T12:04:38;23.70;48.50
22714;DHT22;11524;50.846;4.326;2022-09-23T12:07:17;23.70;48.80
22714;DHT22;11524;50.846;4.326;2022-09-23T12:12:41;23.70;48.90
22714;DHT22;11524;50.846;4.326;2022-09-23T12:26:41;23.70;48.70
22714;DHT22;11524;50.846;4.326;2022-09-23T12:29:11;23.80;48.60
22714;DHT22;11524;50.846;4.326;2022-09-23T12:31:38;23.80;49.30
22714;DHT22;11524;50.846;4.326;2022-09-23T12:34:41;23.80;48.80
22714;DHT22;11524;50.846;4.326;2022-09-23T12:37:12;23.70;48.80
22714;DHT22;11524;50.846;4.326;2022-09-23T12:39:38;23.70;48.80
22714;DHT22;11524;50.846;4.326;2022-09-23T12:42:11;23.80;48.80
22714;DHT22;11524;50.846;4.326;2022-09-23T12:44:41;23.70;49.10
22714;DHT22;11524;50.846;4.326;2022-09-23T12:49:40;23.70;48.90
22714;DHT22;11524;50.846;4.326;2022-09-23T12:54:36;23.70;48.90
22714;DHT22;11524;50.846;4.326;2022-09-23T12:57:12;23.70;48.90
22714;DHT22;11524;50.846;4.326;2022-09-23T13:05:25;23.80;48.60
22714;DHT22;11524;50.846;4.326;2022-09-23T13:08:16;23.80;48.70
22714;DHT22;11524;50.846;4.326;2022-09-23T13:10:53;23.80;48.80
22714;DHT22;11524;50.846;4.326;2022-09-23T13:13:33;23.80;48.80
22714;DHT22;11524;50.846;4.326;2022-09-23T13:16:11;23.80;48.70
22714;DHT22;11524;50.846;4.326;2022-09-23T13:18:49;23.80;48.80
22714;DHT22;11524;50.846;4.326;2022-09-23T13:21:18;23.80;48.80
22714;DHT22;11524;50.846;4.326;2022-09-23T13:26:45;23.80;49.10
22714;DHT22;11524;50.846;4.326;2022-09-23T13:29:41;23.80;49.30
22714;DHT22;11524;50.846;4.326;2022-09-23T13:32:16;23.80;49.30
22714;DHT22;11524;50.846;4.326;2022-09-23T13:34:46;23.90;49.80
22714;DHT22;11524;50.846;4.326;2022-09-23T13:37:22;23.80;49.00
22714;DHT22;11524;50.846;4.326;2022-09-23T13:39:49;23.80;49.00
22714;DHT22;11524;50.846;4.326;2022-09-23T13:42:28;23.80;49.20
22714;DHT22;11524;50.846;4.326;2022-09-23T13:44:54;23.80;49.30
22714;DHT22;11524;50.846;4.326;2022-09-23T13:47:23;23.80;48.60
22714;DHT22;11524;50.846;4.326;2022-09-23T13:49:49;23.80;49.30
22714;DHT22;11524;50.846;4.326;2022-09-23T13:52:34;23.80;49.80
22714;DHT22;11524;50.846;4.326;2022-09-23T13:55:02;23.80;49.90
22714;DHT22;11524;50.846;4.326;2022-09-23T13:57:33;23.80;49.80
22714;DHT22;11524;50.846;4.326;2022-09-23T14:00:19;23.70;50.00
22714;DHT22;11524;50.846;4.326;2022-09-23T14:02:50;23.70;50.00
22714;DHT22;11524;50.846;4.326;2022-09-23T14:05:22;23.80;49.90
22714;DHT22;11524;50.846;4.326;2022-09-23T14:07:49;23.80;49.90
22714;DHT22;11524;50.846;4.326;2022-09-23T14:10:18;23.80;49.90
22714;DHT22;11524;50.846;4.326;2022-09-23T14:12:46;23.80;50.30
22714;DHT22;11524;50.846;4.326;2022-09-23T14:15:14;23.80;50.00
22714;DHT22;11524;50.846;4.326;2022-09-23T14:17:47;23.80;49.80
22714;DHT22;11524;50.846;4.326;2022-09-23T14:20:15;23.90;50.10
22714;DHT22;11524;50.846;4.326;2022-09-23T14:25:53;23.90;50.00
22714;DHT22;11524;50.846;4.326;2022-09-23T14:28:47;23.90;50.00
22714;DHT22;11524;50.846;4.326;2022-09-23T14:31:36;23.90;49.80
22714;DHT22;11524;50.846;4.326;2022-09-23T14:40:48;23.90;49.50
22714;DHT22;11524;50.846;4.326;2022-09-23T14:43:23;23.90;49.50
22714;DHT22;11524;50.846;4.326;2022-09-23T14:45:57;24.00;49.40
22714;DHT22;11524;50.846;4.326;2022-09-23T14:48:28;23.90;49.50
22714;DHT22;11524;50.846;4.326;2022-09-23T14:51:15;23.90;49.30
22714;DHT22;11524;50.846;4.326;2022-09-23T14:53:45;23.90;49.40
22714;DHT22;11524;50.846;4.326;2022-09-23T14:59:21;24.00;49.50
22714;DHT22;11524;50.846;4.326;2022-09-23T15:01:51;24.00;49.50
22714;DHT22;11524;50.846;4.326;2022-09-23T15:07:06;23.90;49.30
22714;DHT22;11524;50.846;4.326;2022-09-23T15:09:38;23.90;49.50
22714;DHT22;11524;50.846;4.326;2022-09-23T15:12:11;24.00;49.40
22714;DHT22;11524;50.846;4.326;2022-09-23T15:14:56;24.00;50.00
22714;DHT22;11524;50.846;4.326;2022-09-23T15:20:16;24.00;49.30
22714;DHT22;11524;50.846;4.326;2022-09-23T15:22:54;24.00;49.30
22714;DHT22;11524;50.846;4.326;2022-09-23T15:25:23;24.00;49.40
22714;DHT22;11524;50.846;4.326;2022-09-23T15:27:59;24.00;49.30
22714;DHT22;11524;50.846;4.326;2022-09-23T15:30:27;23.90;49.50
22714;DHT22;11524;50.846;4.326;2022-09-23T15:32:53;24.00;49.20
22714;DHT22;11524;50.846;4.326;2022-09-23T15:35:20;23.90;49.20
22714;DHT22;11524;50.846;4.326;2022-09-23T15:37:48;23.90;49.30
22714;DHT22;11524;50.846;4.326;2022-09-23T15:40:30;23.90;49.30
22714;DHT22;11524;50.846;4.326;2022-09-23T15:42:58;23.90;49.40
22714;DHT22;11524;50.846;4.326;2022-09-23T15:45:28;23.90;49.40
22714;DHT22;11524;50.846;4.326;2022-09-23T15:47:58;23.90;49.60
22714;DHT22;11524;50.846;4.326;2022-09-23T15:50:26;23.80;49.60
22714;DHT22;11524;50.846;4.326;2022-09-23T15:52:53;23.80;50.00
22714;DHT22;11524;50.846;4.326;2022-09-23T15:55:19;23.80;50.10
22714;DHT22;11524;50.846;4.326;2022-09-23T15:57:49;23.80;50.00
22714;DHT22;11524;50.846;4.326;2022-09-23T16:00:15;23.80;50.10
22714;DHT22;11524;50.846;4.326;2022-09-23T16:02:46;23.80;50.10
22714;DHT22;11524;50.846;4.326;2022-09-23T16:05:21;23.80;50.10
22714;DHT22;11524;50.846;4.326;2022-09-23T16:07:47;23.80;50.10
22714;DHT22;11524;50.846;4.326;2022-09-23T16:10:14;23.80;49.90
22714;DHT22;11524;50.846;4.326;2022-09-23T16:12:40;23.80;50.10
22714;DHT22;11524;50.846;4.326;2022-09-23T16:15:28;23.70;50.20
22714;DHT22;11524;50.846;4.326;2022-09-23T16:17:55;23.80;50.60
22714;DHT22;11524;50.846;4.326;2022-09-23T16:20:21;23.70;50.60
22714;DHT22;11524;50.846;4.326;2022-09-23T16:23:02;23.80;50.80
22714;DHT22;11524;50.846;4.326;2022-09-23T16:25:30;23.80;51.60
22714;DHT22;11524;50.846;4.326;2022-09-23T16:27:58;23.70;51.10
22714;DHT22;11524;50.846;4.326;2022-09-23T16:30:25;23.70;51.10
22714;DHT22;11524;50.846;4.326;2022-09-23T16:32:57;23.70;51.10
22714;DHT22;11524;50.846;4.326;2022-09-23T16:35:26;23.70;51.10
22714;DHT22;11524;50.846;4.326;2022-09-23T16:37:52;23.70;51.10
22714;DHT22;11524;50.846;4.326;2022-09-23T16:40:21;23.70;51.30
22714;DHT22;11524;50.846;4.326;2022-09-23T16:42:53;23.70;51.40
22714;DHT22;11524;50.846;4.326;2022-09-23T16:45:22;23.70;51.60
22714;DHT22;11524;50.846;4.326;2022-09-23T16:47:58;23.70;51.50
22714;DHT22;11524;50.846;4.326;2022-09-23T16:50:41;23.70;51.80
22714;DHT22;11524;50.846;4.326;2022-09-23T16:53:11;23.70;51.80
22714;DHT22;11524;50.846;4.326;2022-09-23T16:55:40;23.60;51.90
22714;DHT22;11524;50.846;4.326;2022-09-23T16:58:06;23.60;52.00
22714;DHT22;11524;50.846;4.326;2022-09-23T17:00:31;23.60;52.00
22714;DHT22;11524;50.846;4.326;2022-09-23T17:03:15;23.60;52.10
22714;DHT22;11524;50.846;4.326;2022-09-23T17:05:59;23.60;52.30
22714;DHT22;11524;50.846;4.326;2022-09-23T17:08:25;23.60;52.50
22714;DHT22;11524;50.846;4.326;2022-09-23T17:11:04;23.60;52.60
22714;DHT22;11524;50.846;4.326;2022-09-23T17:13:33;23.60;53.30
22714;DHT22;11524;50.846;4.326;2022-09-23T17:16:02;23.60;52.80
22714;DHT22;11524;50.846;4.326;2022-09-23T17:18:34;23.50;52.90
22714;DHT22;11524;50.846;4.326;2022-09-23T17:21:02;23.50;53.00
22714;DHT22;11524;50.846;4.326;2022-09-23T17:23:28;23.50;53.00
22714;DHT22;11524;50.846;4.326;2022-09-23T17:25:56;23.50;53.00
22714;DHT22;11524;50.846;4.326;2022-09-23T17:28:22;23.50;53.00
22714;DHT22;11524;50.846;4.326;2022-09-23T17:31:05;23.50;53.10
22714;DHT22;11524;50.846;4.326;2022-09-23T17:33:32;23.50;53.10
22714;DHT22;11524;50.846;4.326;2022-09-23T17:36:05;23.50;53.20
22714;DHT22;11524;50.846;4.326;2022-09-23T17:38:32;23.50;53.10
22714;DHT22;11524;50.846;4.326;2022-09-23T17:40:58;23.50;53.40
22714;DHT22;11524;50.846;4.326;2022-09-23T17:43:26;23.50;53.80
22714;DHT22;11524;50.846;4.326;2022-09-23T17:45:55;23.50;53.80
22714;DHT22;11524;50.846;4.326;2022-09-23T17:48:24;23.50;53.30
22714;DHT22;11524;50.846;4.326;2022-09-23T17:53:22;23.50;53.20
22714;DHT22;11524;50.846;4.326;2022-09-23T17:56:04;23.50;53.20
22714;DHT22;11524;50.846;4.326;2022-09-23T17:58:34;23.40;53.20
22714;DHT22;11524;50.846;4.326;2022-09-23T18:01:00;23.40;53.40
22714;DHT22;11524;50.846;4.326;2022-09-23T18:03:27;23.40;53.60
22714;DHT22;11524;50.846;4.326;2022-09-23T18:09:17;23.40;54.00
22714;DHT22;11524;50.846;4.326;2022-09-23T18:11:44;23.40;54.40
22714;DHT22;11524;50.846;4.326;2022-09-23T18:14:16;23.40;54.40
22714;DHT22;11524;50.846;4.326;2022-09-23T18:16:43;23.30;54.30
22714;DHT22;11524;50.846;4.326;2022-09-23T18:19:11;23.40;54.30
22714;DHT22;11524;50.846;4.326;2022-09-23T18:21:40;23.40;54.20
22714;DHT22;11524;50.846;4.326;2022-09-23T18:24:25;23.30;54.20
22714;DHT22;11524;50.846;4.326;2022-09-23T18:26:51;23.30;54.10
22714;DHT22;11524;50.846;4.326;2022-09-23T18:29:18;23.30;54.20
22714;DHT22;11524;50.846;4.326;2022-09-23T18:31:44;23.30;54.20
22714;DHT22;11524;50.846;4.326;2022-09-23T18:34:14;23.30;54.50
22714;DHT22;11524;50.846;4.326;2022-09-23T18:36:43;23.30;54.60